createdAt,value
2022-10-12T00:00:37.759Z,5.55
2022-10-12T00:05:39.057Z,5.67
2022-10-12T00:10:41.573Z,5.07
2022-10-12T00:15:42.879Z,5.78
2022-10-12T00:20:44.404Z,5.33
2022-10-12T00:25:45.657Z,5.07
2022-10-12T00:30:46.985Z,5.40
2022-10-12T00:35:48.315Z,5.70
2022-10-12T00:40:49.579Z,5.90
2022-10-12T00:45:50.890Z,6.20
2022-10-12T00:50:52.965Z,5.55
2022-10-12T00:55:57.814Z,5.50
2022-10-12T01:01:03.291Z,5.40
2022-10-12T01:06:05.860Z,4.97
2022-10-12T01:11:07.422Z,5.80
2022-10-12T01:16:27.683Z,5.50
2022-10-12T01:21:30.624Z,5.20
2022-10-12T01:26:44.006Z,5.00
2022-10-12T01:31:49.556Z,4.90
2022-10-12T01:37:11.198Z,5.00
2022-10-12T01:42:20.140Z,5.37
2022-10-12T01:47:21.420Z,4.82
2022-10-12T01:52:45.315Z,5.10
2022-10-12T01:57:52.847Z,5.60
2022-10-12T02:02:58.226Z,5.22
2022-10-12T02:08:23.168Z,5.23
2022-10-12T02:13:25.441Z,4.80
2022-10-12T02:18:27.318Z,5.20
2022-10-12T02:23:28.683Z,4.95
2022-10-12T02:28:32.012Z,5.45
2022-10-12T02:33:42.449Z,5.17
2022-10-12T02:38:48.486Z,4.93
2022-10-12T02:43:56.100Z,6.03
2022-10-12T02:48:58.995Z,4.60
2022-10-12T02:54:00.900Z,5.30
2022-10-12T02:59:02.144Z,5.30
2022-10-12T03:04:03.366Z,5.03
2022-10-12T03:09:05.275Z,6.30
2022-10-12T03:14:06.517Z,5.37
2022-10-12T03:19:07.911Z,5.10
2022-10-12T03:24:09.172Z,5.63
2022-10-12T03:29:10.461Z,5.50
2022-10-12T03:34:11.774Z,5.47
2022-10-12T03:39:13.105Z,5.63
2022-10-12T03:44:14.359Z,6.70
2022-10-12T03:49:15.632Z,6.30
2022-10-12T03:54:16.917Z,5.97
2022-10-12T03:59:18.162Z,6.03
2022-10-12T04:04:19.392Z,6.68
2022-10-12T04:09:20.638Z,6.20
2022-10-12T04:14:21.919Z,6.10
2022-10-12T04:19:23.198Z,6.57
2022-10-12T04:24:24.472Z,6.00
2022-10-12T04:29:25.726Z,6.68
2022-10-12T04:34:27.029Z,5.93
2022-10-12T04:39:28.589Z,6.05
2022-10-12T04:44:32.191Z,6.43
2022-10-12T04:49:33.876Z,5.93
2022-10-12T04:54:35.232Z,6.30
2022-10-12T04:59:36.470Z,5.70
2022-10-12T05:04:37.776Z,5.82
2022-10-12T05:09:39.026Z,6.10
2022-10-12T05:14:40.277Z,5.03
2022-10-12T05:19:41.538Z,6.00
2022-10-12T05:24:42.911Z,5.65
2022-10-12T05:29:44.312Z,5.13
2022-10-12T05:34:46.026Z,5.32
2022-10-12T05:39:49.659Z,6.03
2022-10-12T05:44:50.900Z,6.13
2022-10-12T05:49:52.241Z,7.70
2022-10-12T05:54:53.488Z,7.87
2022-10-12T05:59:54.916Z,7.82
2022-10-12T06:04:56.165Z,7.22
2022-10-12T06:09:57.444Z,6.20
2022-10-12T06:14:58.720Z,6.57
2022-10-12T06:19:59.964Z,6.13
2022-10-12T06:25:01.333Z,5.65
2022-10-12T06:30:02.696Z,5.40
2022-10-12T06:35:04.247Z,4.50
2022-10-12T06:40:05.741Z,4.70
2022-10-12T06:45:07.287Z,5.60
2022-10-12T06:50:08.821Z,5.10
2022-10-12T06:55:11.398Z,5.03
2022-10-12T07:00:13.356Z,4.90
2022-10-12T07:05:16.337Z,4.77
2022-10-12T07:10:17.673Z,5.15
2022-10-12T07:15:19.359Z,5.10
2022-10-12T07:20:20.630Z,4.43
2022-10-12T07:25:22.343Z,5.10
2022-10-12T07:30:23.624Z,4.67
2022-10-12T07:35:25.030Z,4.97
2022-10-12T07:40:26.444Z,5.43
2022-10-12T07:45:28.658Z,4.80
2022-10-12T07:50:29.929Z,4.78
2022-10-12T07:55:31.997Z,5.95
2022-10-12T08:00:33.440Z,5.30
2022-10-12T08:05:35.445Z,5.38
2022-10-12T08:10:36.961Z,6.93
2022-10-12T08:15:38.266Z,7.07
2022-10-12T08:20:39.517Z,7.88
2022-10-12T08:25:40.824Z,8.10
2022-10-12T08:30:42.107Z,8.97
2022-10-12T08:35:43.964Z,7.80
2022-10-12T08:40:53.481Z,7.30
2022-10-12T08:45:56.147Z,7.37
2022-10-12T08:51:00.725Z,7.25
2022-10-12T08:56:02.021Z,6.90
2022-10-12T09:01:16.573Z,6.87
2022-10-12T09:06:25.280Z,7.47
2022-10-12T09:11:44.737Z,8.33
2022-10-12T09:16:47.414Z,8.77
2022-10-12T09:21:49.329Z,8.30
2022-10-12T09:26:52.262Z,9.00
2022-10-12T09:32:08.642Z,8.27
2022-10-12T09:37:14.751Z,9.32
2022-10-12T09:42:16.316Z,8.50
2022-10-12T09:47:20.610Z,9.27
2022-10-12T09:52:24.267Z,9.35
2022-10-12T09:57:28.091Z,9.40
2022-10-12T10:02:29.462Z,8.27
2022-10-12T10:07:33.237Z,9.17
2022-10-12T10:12:38.012Z,9.07
2022-10-12T10:17:39.301Z,9.05
2022-10-12T10:22:47.157Z,8.70
2022-10-12T10:27:50.609Z,8.40
2022-10-12T10:33:07.070Z,7.97
2022-10-12T10:38:15.555Z,8.27
2022-10-12T10:43:20.756Z,8.43
2022-10-12T10:48:24.854Z,7.55
2022-10-12T10:53:27.587Z,7.80
2022-10-12T10:58:41.071Z,7.50
2022-10-12T11:04:01.308Z,8.15
2022-10-12T11:09:14.737Z,9.23
2022-10-12T11:14:17.281Z,7.43
2022-10-12T11:19:37.399Z,7.53
2022-10-12T11:24:42.032Z,6.80
2022-10-12T11:29:43.473Z,7.77
2022-10-12T11:35:05.047Z,8.63
2022-10-12T11:40:08.755Z,7.32
2022-10-12T11:45:34.438Z,7.10
2022-10-12T11:50:38.593Z,7.07
2022-10-12T11:55:59.471Z,7.25
2022-10-12T12:01:03.806Z,6.75
2022-10-12T12:06:23.581Z,5.83
2022-10-12T12:11:26.651Z,6.50
2022-10-12T12:16:31.954Z,5.95
2022-10-12T12:21:53.171Z,5.60
2022-10-12T12:26:54.444Z,5.75
2022-10-12T12:31:56.609Z,6.35
2022-10-12T12:36:58.443Z,5.47
2022-10-12T12:42:03.935Z,6.50
2022-10-12T12:47:20.566Z,5.30
2022-10-12T12:52:27.067Z,6.00
2022-10-12T12:57:31.405Z,6.30
2022-10-12T13:02:38.879Z,6.10
2022-10-12T13:07:46.001Z,5.85
2022-10-12T13:12:59.626Z,6.87
2022-10-12T13:18:34.526Z,6.63
2022-10-12T13:23:38.136Z,7.13
2022-10-12T13:28:42.406Z,6.40
2022-10-12T13:33:50.930Z,6.40
2022-10-12T13:38:56.975Z,6.75
2022-10-12T13:43:59.789Z,5.78
2022-10-12T13:49:02.281Z,6.10
2022-10-12T13:54:14.178Z,6.47
2022-10-12T13:59:19.164Z,6.68
2022-10-12T14:04:20.799Z,6.60
2022-10-12T14:09:24.013Z,6.90
2022-10-12T14:14:31.312Z,6.30
2022-10-12T14:19:34.615Z,6.70
2022-10-12T14:24:36.475Z,7.03
2022-10-12T14:29:42.796Z,6.93
2022-10-12T14:34:46.457Z,6.50
2022-10-12T14:39:48.602Z,6.90
2022-10-12T14:44:50.074Z,6.07
2022-10-12T14:49:52.605Z,6.88
2022-10-12T15:00:01.325Z,6.13
2022-10-12T15:05:02.610Z,6.75
2022-10-12T15:10:04.515Z,5.57
2022-10-12T15:15:15.107Z,6.10
2022-10-12T15:20:16.370Z,5.55
2022-10-12T15:25:20.258Z,6.35
2022-10-12T15:30:21.502Z,5.53
2022-10-12T15:35:26.755Z,5.35
2022-10-12T15:40:28.936Z,5.70
2022-10-12T15:45:32.261Z,5.53
2022-10-12T15:50:39.101Z,5.25
2022-10-12T15:55:40.408Z,5.60
2022-10-12T16:00:41.967Z,6.10
2022-10-12T16:05:43.342Z,5.30
2022-10-12T16:10:45.518Z,6.07
2022-10-12T16:15:46.947Z,7.05
2022-10-12T16:20:53.572Z,5.90
2022-10-12T16:25:55.766Z,5.18
2022-10-12T16:30:57.293Z,5.80
2022-10-12T16:35:58.555Z,5.70
2022-10-12T16:40:59.823Z,6.30
2022-10-12T16:46:01.217Z,6.38
2022-10-12T16:51:06.355Z,6.33
2022-10-12T16:56:07.683Z,5.30
2022-10-12T17:01:13.024Z,5.28
2022-10-12T17:06:14.349Z,5.18
2022-10-12T17:11:17.073Z,5.63
2022-10-12T17:16:37.169Z,6.72
2022-10-12T17:21:42.996Z,6.18
2022-10-12T17:26:44.694Z,6.90
2022-10-12T17:31:46.411Z,6.78
2022-10-12T17:36:48.157Z,8.63
2022-10-12T17:41:49.609Z,7.17
2022-10-12T17:46:51.069Z,8.20
2022-10-12T17:51:52.451Z,7.18
2022-10-12T17:56:57.193Z,7.17
2022-10-12T18:01:58.976Z,8.27
2022-10-12T18:07:00.251Z,7.32
2022-10-12T18:12:01.508Z,7.80
2022-10-12T18:17:02.799Z,6.90
2022-10-12T18:22:04.132Z,7.32
2022-10-12T18:27:05.386Z,8.53
2022-10-12T18:32:06.981Z,7.53
2022-10-12T18:37:08.287Z,8.05
2022-10-12T18:42:09.966Z,9.17
2022-10-12T18:47:11.270Z,8.20
2022-10-12T18:52:12.626Z,8.50
2022-10-12T18:57:13.903Z,7.93
2022-10-12T19:02:17.335Z,8.48
2022-10-12T19:07:19.046Z,8.77
2022-10-12T19:12:21.158Z,9.90
2022-10-12T19:17:22.516Z,10.05
2022-10-12T19:22:23.778Z,8.67
2022-10-12T19:27:25.129Z,7.80
2022-10-12T19:32:26.439Z,7.50
2022-10-12T19:37:27.725Z,7.20
2022-10-12T19:42:29.123Z,8.17
2022-10-12T19:47:30.703Z,9.23
2022-10-12T19:52:32.016Z,8.90
2022-10-12T19:57:37.911Z,8.83
2022-10-12T20:02:41.460Z,8.00
2022-10-12T20:07:42.780Z,7.50
2022-10-12T20:12:44.159Z,7.67
2022-10-12T20:17:45.437Z,7.20
2022-10-12T20:22:46.703Z,7.10
2022-10-12T20:27:47.988Z,7.07
2022-10-12T20:32:54.595Z,8.02
2022-10-12T20:37:56.853Z,8.50
2022-10-12T20:42:58.191Z,8.23
2022-10-12T20:47:59.445Z,8.73
2022-10-12T20:53:00.815Z,8.03
2022-10-12T20:58:02.126Z,8.10
2022-10-12T21:03:03.471Z,8.60
2022-10-12T21:08:04.827Z,8.73
2022-10-12T21:13:06.110Z,8.00
2022-10-12T21:18:07.448Z,6.93
2022-10-12T21:23:08.769Z,7.00
2022-10-12T21:28:10.039Z,8.25
2022-10-12T21:33:11.513Z,7.47
2022-10-12T21:38:12.795Z,6.30
2022-10-12T21:43:14.048Z,7.22
2022-10-12T21:48:15.285Z,7.60
2022-10-12T21:53:16.526Z,7.78
2022-10-12T21:58:17.816Z,8.18
2022-10-12T22:03:19.064Z,7.47
2022-10-12T22:08:20.324Z,7.53
2022-10-12T22:13:21.682Z,7.80
2022-10-12T22:18:22.933Z,7.90
2022-10-12T22:23:24.176Z,7.97
2022-10-12T22:28:25.517Z,7.23
2022-10-12T22:33:26.979Z,10.30
2022-10-12T22:38:28.525Z,7.20
2022-10-12T22:43:30.254Z,6.67
2022-10-12T22:48:31.837Z,7.22
2022-10-12T22:53:33.338Z,7.73
2022-10-12T22:58:34.995Z,7.30
2022-10-12T23:03:36.996Z,7.32
2022-10-12T23:08:38.438Z,6.70
2022-10-12T23:13:40.315Z,6.90
2022-10-12T23:18:41.617Z,7.97
2022-10-12T23:23:43.749Z,6.80
2022-10-12T23:28:45.663Z,6.35
2022-10-12T23:33:47.205Z,7.77
2022-10-12T23:38:48.463Z,6.70
2022-10-12T23:43:49.696Z,6.60
2022-10-12T23:48:50.980Z,6.93
2022-10-12T23:53:52.228Z,6.78
2022-10-12T23:58:53.495Z,7.13
